Time;durP1;ratioP1;P1;durP2;ratioP2;P2;SDS_P1;SDS_P2;PMS_P1;PMS_P2;Temp;Humidity;BMP_temperature;BMP_pressure;BME280_temperature;BME280_humidity;BME280_pressure;Samples;Min_cycle;Max_cycle;Signal;HPM_P1;HPM_P2
2022/01/24 00:01:25;;;;;;;18.65;3.92;;;;;;;;;;5024209;28;19924;-64
2022/01/24 00:03:57;;;;;;;17.92;2.42;;;;;;;;;;5023808;28;20049;-64
2022/01/24 00:06:25;;;;;;;13.00;2.25;;;;;;;;;;5022943;28;20046;-64
2022/01/24 00:08:51;;;;;;;17.08;2.42;;;;;;;;;;5022383;28;20089;-64
2022/01/24 00:11:23;;;;;;;13.00;3.08;;;;;;;;;;5020596;28;20084;-64
2022/01/24 00:27:28;;;;;;;15.73;3.22;;;;;;;;;;5018779;28;20145;-64
2022/01/24 00:29:54;;;;;;;21.30;3.50;;;;;;;;;;5021013;28;20132;-64
2022/01/24 00:32:22;;;;;;;20.02;2.72;;;;;;;;;;5021373;28;20459;-64
2022/01/24 00:34:48;;;;;;;17.63;3.00;;;;;;;;;;5023090;28;20548;-64
2022/01/24 00:37:15;;;;;;;14.73;3.03;;;;;;;;;;5023535;28;20333;-64
2022/01/24 00:39:42;;;;;;;12.68;3.25;;;;;;;;;;5026928;28;20150;-64
2022/01/24 00:42:26;;;;;;;15.48;2.70;;;;;;;;;;5023632;28;20126;-64
2022/01/24 00:47:28;;;;;;;22.85;2.83;;;;;;;;;;5021659;28;20063;-64
2022/01/24 00:55:25;;;;;;;13.63;2.35;;;;;;;;;;5020936;28;20137;-64
2022/01/24 00:57:51;;;;;;;12.70;2.40;;;;;;;;;;5019245;28;20124;-64
2022/01/24 01:00:17;;;;;;;15.20;2.53;;;;;;;;;;5024464;28;20429;-64
2022/01/24 01:02:46;;;;;;;12.02;2.35;;;;;;;;;;5020225;28;20584;-64
2022/01/24 01:18:28;;;;;;;24.70;3.03;;;;;;;;;;5027921;28;20045;-64
2022/01/24 01:23:31;;;;;;;11.43;2.50;;;;;;;;;;5023731;28;20079;-64
2022/01/24 01:26:00;;;;;;;13.88;2.40;;;;;;;;;;5022282;28;20578;-64
2022/01/24 01:28:28;;;;;;;15.30;2.58;;;;;;;;;;5025202;28;20052;-64
2022/01/24 01:30:59;;;;;;;16.90;2.03;;;;;;;;;;5024688;28;20628;-65
2022/01/24 01:33:37;;;;;;;17.38;3.35;;;;;;;;;;5024543;28;20077;-64
2022/01/24 01:36:14;;;;;;;22.52;3.00;;;;;;;;;;5027213;28;20049;-64
2022/01/24 01:55:38;;;;;;;11.32;2.75;;;;;;;;;;5022966;28;20136;-64
2022/01/24 01:58:15;;;;;;;15.27;2.58;;;;;;;;;;5026026;28;20128;-64
2022/01/24 02:00:48;;;;;;;8.48;2.50;;;;;;;;;;5027545;28;20080;-64
2022/01/24 02:03:17;;;;;;;15.18;2.47;;;;;;;;;;5023987;28;20045;-64
2022/01/24 02:05:44;;;;;;;10.45;2.13;;;;;;;;;;5024217;28;20050;-64
2022/01/24 02:08:10;;;;;;;17.73;2.25;;;;;;;;;;5026656;28;20140;-64
2022/01/24 02:10:38;;;;;;;17.17;2.78;;;;;;;;;;5024339;28;20129;-64
2022/01/24 02:13:05;;;;;;;19.08;2.83;;;;;;;;;;5026835;28;20137;-64
2022/01/24 02:25:51;;;;;;;13.00;2.00;;;;;;;;;;5024361;28;20557;-64
2022/01/24 02:28:20;;;;;;;17.90;2.63;;;;;;;;;;5023056;28;20132;-64
2022/01/24 02:31:26;;;;;;;8.70;1.83;;;;;;;;;;5024538;28;20131;-64
2022/01/24 02:33:35;;;;;;;14.93;2.08;;;;;;;;;;5024221;28;20049;-64
2022/01/24 02:36:08;;;;;;;15.38;2.53;;;;;;;;;;5025817;28;20132;-64
2022/01/24 02:38:54;;;;;;;12.13;2.72;;;;;;;;;;5026004;28;20149;-64
2022/01/24 02:49:31;;;;;;;12.70;2.45;;;;;;;;;;5022996;28;20053;-64
2022/01/24 02:52:07;;;;;;;9.98;2.60;;;;;;;;;;5026196;28;20063;-64
2022/01/24 02:54:34;;;;;;;9.95;2.95;;;;;;;;;;5024357;28;20141;-64
2022/01/24 02:57:01;;;;;;;10.77;2.40;;;;;;;;;;5023428;28;20164;-64
2022/01/24 02:59:28;;;;;;;14.35;2.83;;;;;;;;;;5024692;28;20168;-64
2022/01/24 03:01:54;;;;;;;15.77;2.30;;;;;;;;;;5032378;28;20131;-64
2022/01/24 03:04:24;;;;;;;11.63;1.95;;;;;;;;;;5024866;28;20528;-64
2022/01/24 03:06:50;;;;;;;11.30;2.05;;;;;;;;;;5025693;28;20053;-64
2022/01/24 03:09:17;;;;;;;17.33;2.67;;;;;;;;;;5022805;28;20488;-64
2022/01/24 03:14:32;;;;;;;7.78;2.25;;;;;;;;;;5019664;28;20141;-64
2022/01/24 03:17:05;;;;;;;12.02;2.40;;;;;;;;;;5020916;28;20049;-64
2022/01/24 03:19:32;;;;;;;11.88;2.17;;;;;;;;;;5023380;28;20167;-64
2022/01/24 03:21:59;;;;;;;4.63;1.58;;;;;;;;;;5021399;28;20077;-64
2022/01/24 03:24:25;;;;;;;12.93;1.75;;;;;;;;;;5024026;28;20052;-64
2022/01/24 03:26:52;;;;;;;9.20;1.77;;;;;;;;;;5029829;28;20136;-64
2022/01/24 03:29:18;;;;;;;7.28;1.65;;;;;;;;;;5027117;28;20171;-64
2022/01/24 03:31:47;;;;;;;8.63;2.10;;;;;;;;;;5010337;28;20096;-64
2022/01/24 03:34:14;;;;;;;11.20;1.75;;;;;;;;;;5023823;28;20089;-63
2022/01/24 03:36:40;;;;;;;7.68;1.55;;;;;;;;;;5025621;28;20046;-63
2022/01/24 03:39:14;;;;;;;7.35;1.58;;;;;;;;;;5022946;28;20132;-63
2022/01/24 03:41:40;;;;;;;7.50;1.90;;;;;;;;;;5020149;28;20497;-63
2022/01/24 03:44:08;;;;;;;6.30;1.58;;;;;;;;;;5017788;28;20893;-63
2022/01/24 03:49:45;;;;;;;9.95;2.33;;;;;;;;;;4989703;28;20080;-63
2022/01/24 03:52:12;;;;;;;7.03;2.10;;;;;;;;;;5020279;28;20076;-63
2022/01/24 03:54:39;;;;;;;8.65;2.08;;;;;;;;;;5023802;28;20069;-63
2022/01/24 03:57:05;;;;;;;17.23;3.45;;;;;;;;;;5021701;28;20157;-63
2022/01/24 03:59:32;;;;;;;6.57;1.92;;;;;;;;;;5022094;28;20069;-63
2022/01/24 04:01:59;;;;;;;12.75;2.20;;;;;;;;;;5020863;28;20073;-63
2022/01/24 04:04:28;;;;;;;11.52;2.25;;;;;;;;;;5023589;28;20104;-63
2022/01/24 04:06:55;;;;;;;18.52;2.53;;;;;;;;;;5022270;28;20137;-63
2022/01/24 04:09:21;;;;;;;6.90;2.05;;;;;;;;;;5017003;28;20140;-63
2022/01/24 04:11:52;;;;;;;13.55;2.30;;;;;;;;;;5019717;28;20141;-63
2022/01/24 04:14:39;;;;;;;10.65;2.40;;;;;;;;;;5022076;28;20155;-63
2022/01/24 04:17:22;;;;;;;20.45;2.50;;;;;;;;;;5021328;28;20054;-63
2022/01/24 04:22:26;;;;;;;12.15;2.47;;;;;;;;;;5022314;28;20141;-63
2022/01/24 04:25:00;;;;;;;6.63;1.90;;;;;;;;;;5024205;28;20144;-63
2022/01/24 04:27:27;;;;;;;9.73;2.67;;;;;;;;;;5020986;28;20081;-63
2022/01/24 04:29:54;;;;;;;13.25;2.38;;;;;;;;;;5020415;28;20145;-63
2022/01/24 04:32:21;;;;;;;13.55;2.35;;;;;;;;;;5020255;28;20132;-63
2022/01/24 04:34:48;;;;;;;10.50;2.43;;;;;;;;;;5022495;28;20487;-63
2022/01/24 04:37:14;;;;;;;12.05;2.30;;;;;;;;;;5022382;28;20894;-63
2022/01/24 04:39:43;;;;;;;10.57;2.33;;;;;;;;;;5022712;28;20144;-63
2022/01/24 04:42:14;;;;;;;9.10;1.95;;;;;;;;;;5020996;28;20140;-63
2022/01/24 04:47:21;;;;;;;11.40;2.05;;;;;;;;;;5026861;28;20475;-63
2022/01/24 04:53:03;;;;;;;8.57;2.33;;;;;;;;;;5022683;28;20124;-63
2022/01/24 04:55:30;;;;;;;13.52;2.38;;;;;;;;;;5026638;28;20145;-63
2022/01/24 04:57:56;;;;;;;10.00;2.55;;;;;;;;;;5028189;28;20117;-63
2022/01/24 05:00:22;;;;;;;19.95;3.05;;;;;;;;;;5023270;28;20137;-63
2022/01/24 05:02:56;;;;;;;17.38;2.72;;;;;;;;;;5025853;28;20058;-63
2022/01/24 05:05:25;;;;;;;14.75;2.45;;;;;;;;;;5025052;28;20067;-63
2022/01/24 05:07:52;;;;;;;9.35;2.40;;;;;;;;;;5026069;28;20493;-63
2022/01/24 05:10:32;;;;;;;11.30;3.03;;;;;;;;;;5020862;28;20088;-63
2022/01/24 05:24:09;;;;;;;14.68;2.67;;;;;;;;;;4989120;28;20111;-63
2022/01/24 05:26:43;;;;;;;13.00;2.83;;;;;;;;;;5024950;28;20571;-63
2022/01/24 05:29:09;;;;;;;11.30;3.50;;;;;;;;;;5027549;28;20136;-63
2022/01/24 05:31:36;;;;;;;22.00;3.50;;;;;;;;;;5022495;28;20120;-63
2022/01/24 05:34:09;;;;;;;15.85;2.72;;;;;;;;;;5022152;28;20112;-63
2022/01/24 05:36:35;;;;;;;16.85;2.95;;;;;;;;;;5025961;28;20121;-63
2022/01/24 05:39:02;;;;;;;15.38;2.70;;;;;;;;;;5024997;28;20136;-64
2022/01/24 05:41:29;;;;;;;13.85;2.28;;;;;;;;;;5023503;28;20100;-65
2022/01/24 05:43:55;;;;;;;15.98;2.92;;;;;;;;;;5022203;28;20061;-64
2022/01/24 05:46:22;;;;;;;11.20;2.67;;;;;;;;;;5024632;28;20045;-64
2022/01/24 05:48:55;;;;;;;16.05;2.80;;;;;;;;;;5023300;28;20041;-64
2022/01/24 05:51:22;;;;;;;13.70;3.03;;;;;;;;;;5025998;28;20114;-64
2022/01/24 05:53:48;;;;;;;16.25;3.50;;;;;;;;;;5024342;28;20053;-64
2022/01/24 05:56:18;;;;;;;16.30;3.15;;;;;;;;;;5025906;28;20198;-64
2022/01/24 05:58:45;;;;;;;23.03;3.20;;;;;;;;;;5025710;28;20062;-64
2022/01/24 06:01:12;;;;;;;14.02;3.00;;;;;;;;;;5023381;28;20054;-63
2022/01/24 06:03:39;;;;;;;11.52;3.38;;;;;;;;;;5024723;28;20430;-63
2022/01/24 06:06:07;;;;;;;15.82;3.53;;;;;;;;;;5026426;28;20096;-64
2022/01/24 06:08:34;;;;;;;17.23;3.65;;;;;;;;;;5025718;28;20084;-63
2022/01/24 06:11:01;;;;;;;15.30;3.45;;;;;;;;;;5022268;28;20087;-64
2022/01/24 06:13:27;;;;;;;24.52;3.70;;;;;;;;;;5025515;28;20085;-64
2022/01/24 06:15:54;;;;;;;22.67;3.70;;;;;;;;;;5027264;28;20462;-63
2022/01/24 06:18:24;;;;;;;20.63;4.20;;;;;;;;;;5026671;28;20041;-63
2022/01/24 06:20:50;;;;;;;24.92;4.43;;;;;;;;;;5027325;28;20053;-63
2022/01/24 06:23:17;;;;;;;19.60;3.97;;;;;;;;;;5025854;28;20085;-64
2022/01/24 06:25:43;;;;;;;21.20;3.53;;;;;;;;;;5026703;28;20049;-63
2022/01/24 06:28:10;;;;;;;16.27;3.40;;;;;;;;;;5024459;28;20734;-64
2022/01/24 06:30:37;;;;;;;19.80;4.47;;;;;;;;;;5026733;28;20049;-63
2022/01/24 06:33:03;;;;;;;15.75;3.70;;;;;;;;;;5020510;28;20125;-63
2022/01/24 06:35:30;;;;;;;17.48;3.95;;;;;;;;;;5024721;28;20104;-64
2022/01/24 06:37:56;;;;;;;17.75;4.13;;;;;;;;;;5026436;28;20125;-63
2022/01/24 06:40:23;;;;;;;16.13;4.77;;;;;;;;;;5027960;28;20057;-63
2022/01/24 06:42:49;;;;;;;21.67;4.13;;;;;;;;;;5023025;28;20563;-63
2022/01/24 06:45:16;;;;;;;18.77;3.97;;;;;;;;;;5021175;28;20137;-63
2022/01/24 06:47:44;;;;;;;24.83;5.50;;;;;;;;;;5022500;28;20128;-64
2022/01/24 06:50:11;;;;;;;20.67;4.30;;;;;;;;;;5024243;28;20414;-63
2022/01/24 06:52:37;;;;;;;20.77;4.03;;;;;;;;;;5025998;28;20132;-64
2022/01/24 06:55:04;;;;;;;16.35;4.28;;;;;;;;;;5022193;28;20168;-63
2022/01/24 06:57:31;;;;;;;21.98;5.20;;;;;;;;;;5029241;28;20569;-63
2022/01/24 06:59:57;;;;;;;24.13;5.05;;;;;;;;;;5022813;28;20493;-64
2022/01/24 07:02:24;;;;;;;13.02;3.70;;;;;;;;;;5023615;28;20113;-63
2022/01/24 07:04:50;;;;;;;20.25;4.50;;;;;;;;;;5022083;28;20391;-63
2022/01/24 07:07:18;;;;;;;20.85;4.63;;;;;;;;;;5019844;28;20053;-64
2022/01/24 07:09:45;;;;;;;16.05;3.92;;;;;;;;;;5023881;28;20100;-63
2022/01/24 07:12:12;;;;;;;18.38;4.68;;;;;;;;;;5021420;28;20132;-64
2022/01/24 07:14:40;;;;;;;21.40;4.10;;;;;;;;;;5023421;28;20500;-63
2022/01/24 07:17:28;;;;;;;19.45;4.22;;;;;;;;;;5021228;28;20076;-63
2022/01/24 07:19:55;;;;;;;18.52;4.18;;;;;;;;;;5021000;28;20080;-63
2022/01/24 07:22:23;;;;;;;19.67;4.55;;;;;;;;;;5023840;28;20085;-64
2022/01/24 07:24:49;;;;;;;22.77;4.43;;;;;;;;;;5026801;28;20057;-63
2022/01/24 07:27:16;;;;;;;29.23;4.70;;;;;;;;;;5021086;28;20073;-64
2022/01/24 07:29:43;;;;;;;19.77;4.55;;;;;;;;;;5026196;28;20083;-63
2022/01/24 07:32:09;;;;;;;21.42;4.85;;;;;;;;;;5022754;28;20080;-64
2022/01/24 07:34:35;;;;;;;18.02;4.07;;;;;;;;;;5023517;28;20058;-63
2022/01/24 07:37:09;;;;;;;19.77;4.55;;;;;;;;;;5026643;28;20626;-64
2022/01/24 07:39:35;;;;;;;21.55;4.60;;;;;;;;;;5020766;28;20057;-64
2022/01/24 07:42:15;;;;;;;16.75;4.13;;;;;;;;;;5025256;28;20049;-64
2022/01/24 07:44:42;;;;;;;32.75;4.60;;;;;;;;;;5023981;28;20601;-64
2022/01/24 07:47:08;;;;;;;23.55;4.68;;;;;;;;;;5007319;28;20111;-63
2022/01/24 07:49:35;;;;;;;17.92;4.65;;;;;;;;;;5023010;28;20092;-64
2022/01/24 07:52:03;;;;;;;12.27;2.92;;;;;;;;;;5022032;28;20555;-64
2022/01/24 07:54:29;;;;;;;25.17;5.60;;;;;;;;;;5023483;28;20053;-63
2022/01/24 07:56:55;;;;;;;21.05;4.15;;;;;;;;;;5019983;28;20473;-64
2022/01/24 07:59:23;;;;;;;14.50;4.18;;;;;;;;;;5025307;28;20088;-63
2022/01/24 08:01:50;;;;;;;10.68;3.72;;;;;;;;;;5020603;28;20046;-63
2022/01/24 08:04:17;;;;;;;19.90;3.97;;;;;;;;;;5023925;28;20133;-63
2022/01/24 08:06:46;;;;;;;16.10;4.30;;;;;;;;;;5023243;28;20089;-64
2022/01/24 08:09:13;;;;;;;16.58;3.90;;;;;;;;;;5024555;28;20772;-63
2022/01/24 08:11:39;;;;;;;24.27;3.33;;;;;;;;;;5015597;28;20454;-64
2022/01/24 08:14:08;;;;;;;15.85;4.30;;;;;;;;;;5021932;28;20141;-63
2022/01/24 08:16:36;;;;;;;22.20;4.15;;;;;;;;;;5022158;28;20081;-64
2022/01/24 08:19:03;;;;;;;21.17;3.75;;;;;;;;;;5022280;28;20073;-64
2022/01/24 08:21:30;;;;;;;21.10;3.95;;;;;;;;;;5023124;28;20107;-64
2022/01/24 08:23:56;;;;;;;18.45;4.18;;;;;;;;;;5024600;28;20136;-63
2022/01/24 08:26:23;;;;;;;17.15;4.47;;;;;;;;;;5020350;28;20136;-63
2022/01/24 08:28:50;;;;;;;20.05;3.95;;;;;;;;;;5024853;28;20597;-63
2022/01/24 08:31:16;;;;;;;13.65;4.55;;;;;;;;;;5021281;28;20860;-63
2022/01/24 08:33:44;;;;;;;14.60;3.87;;;;;;;;;;5019169;28;20050;-63
2022/01/24 08:36:11;;;;;;;19.38;3.95;;;;;;;;;;5023491;28;20111;-63
2022/01/24 08:38:38;;;;;;;18.38;3.88;;;;;;;;;;5024323;28;20129;-63
2022/01/24 08:41:12;;;;;;;17.50;3.40;;;;;;;;;;5021472;28;20081;-63
2022/01/24 08:43:53;;;;;;;25.38;3.70;;;;;;;;;;5022482;28;20095;-63
2022/01/24 08:46:20;;;;;;;18.35;4.35;;;;;;;;;;5021824;28;20052;-63
2022/01/24 08:48:47;;;;;;;20.27;3.80;;;;;;;;;;5021474;28;20617;-64
2022/01/24 08:51:16;;;;;;;19.75;4.10;;;;;;;;;;5020058;28;20104;-63
2022/01/24 08:54:00;;;;;;;23.23;4.22;;;;;;;;;;5021094;28;20093;-63
2022/01/24 08:56:28;;;;;;;11.67;3.97;;;;;;;;;;5019418;28;20081;-63
2022/01/24 08:58:54;;;;;;;26.42;4.03;;;;;;;;;;5020631;28;20077;-64
2022/01/24 09:01:21;;;;;;;26.42;4.28;;;;;;;;;;5021588;28;20053;-63
2022/01/24 09:03:49;;;;;;;25.35;4.25;;;;;;;;;;5023089;28;20054;-64
2022/01/24 09:06:18;;;;;;;21.87;4.33;;;;;;;;;;5018346;28;20132;-63
2022/01/24 09:08:44;;;;;;;10.13;4.32;;;;;;;;;;5023894;28;20852;-63
2022/01/24 09:11:11;;;;;;;16.00;3.38;;;;;;;;;;5019920;28;20137;-64
2022/01/24 09:13:37;;;;;;;25.38;4.30;;;;;;;;;;5021406;28;20042;-63
2022/01/24 09:16:04;;;;;;;20.15;3.08;;;;;;;;;;5023161;28;20088;-63
2022/01/24 09:18:31;;;;;;;12.18;3.05;;;;;;;;;;5023625;28;20093;-64
2022/01/24 09:20:57;;;;;;;14.35;2.85;;;;;;;;;;5021213;28;20480;-63
2022/01/24 09:23:26;;;;;;;17.85;3.95;;;;;;;;;;5023438;28;20467;-63
2022/01/24 09:25:52;;;;;;;12.68;2.40;;;;;;;;;;5020727;28;20180;-63
2022/01/24 09:28:19;;;;;;;12.32;3.13;;;;;;;;;;5018313;28;20137;-63
2022/01/24 09:30:46;;;;;;;18.60;3.75;;;;;;;;;;5017751;28;20148;-63
2022/01/24 09:33:13;;;;;;;11.13;2.58;;;;;;;;;;5023305;28;20156;-63
2022/01/24 09:35:42;;;;;;;13.73;2.40;;;;;;;;;;5024172;28;20136;-63
2022/01/24 09:38:09;;;;;;;16.02;3.22;;;;;;;;;;5027128;28;20507;-63
2022/01/24 09:40:35;;;;;;;13.87;3.03;;;;;;;;;;5023446;28;20089;-63
2022/01/24 09:43:02;;;;;;;12.95;3.03;;;;;;;;;;5022817;28;20481;-63
2022/01/24 09:45:28;;;;;;;14.32;3.05;;;;;;;;;;5021740;28;20121;-64
2022/01/24 09:47:56;;;;;;;13.97;3.57;;;;;;;;;;5024386;28;20084;-63
2022/01/24 09:50:22;;;;;;;13.32;3.33;;;;;;;;;;5022906;28;20608;-63
2022/01/24 09:52:49;;;;;;;16.30;4.07;;;;;;;;;;5023305;28;20088;-63
2022/01/24 09:55:18;;;;;;;14.63;2.53;;;;;;;;;;5025457;28;20053;-63
2022/01/24 09:57:47;;;;;;;22.98;3.88;;;;;;;;;;5022290;28;20160;-63
2022/01/24 10:00:17;;;;;;;19.80;3.38;;;;;;;;;;5024948;28;20088;-63
2022/01/24 10:02:44;;;;;;;14.20;3.72;;;;;;;;;;5021331;28;20164;-63
2022/01/24 10:05:16;;;;;;;15.75;3.30;;;;;;;;;;5025374;28;20052;-63
2022/01/24 10:07:48;;;;;;;17.17;3.17;;;;;;;;;;5026534;28;20152;-63
2022/01/24 10:10:16;;;;;;;18.02;3.33;;;;;;;;;;5020436;28;20045;-63
2022/01/24 10:18:04;;;;;;;16.23;3.47;;;;;;;;;;5020247;28;20046;-63
2022/01/24 10:20:39;;;;;;;11.35;2.45;;;;;;;;;;5024335;28;20382;-63
2022/01/24 10:23:16;;;;;;;20.15;3.28;;;;;;;;;;5025715;28;20077;-63
2022/01/24 10:26:03;;;;;;;16.63;3.70;;;;;;;;;;5026138;28;20123;-63
2022/01/24 10:28:30;;;;;;;16.13;3.22;;;;;;;;;;5022451;28;20597;-64
2022/01/24 10:30:57;;;;;;;;;;;;;;;;;;5026470;28;20050;-63
2022/01/24 10:33:24;;;;;;;13.25;2.88;;;;;;;;;;5025269;28;20288;-63
2022/01/24 10:36:24;;;;;;;14.65;3.35;;;;;;;;;;5026471;28;20213;-63
2022/01/24 10:38:55;;;;;;;16.73;4.15;;;;;;;;;;5021769;28;20112;-63
2022/01/24 10:41:25;;;;;;;15.95;3.83;;;;;;;;;;5027425;28;20408;-63
2022/01/24 10:43:55;;;;;;;15.02;3.45;;;;;;;;;;5024391;28;20700;-63
2022/01/24 10:46:42;;;;;;;20.92;4.68;;;;;;;;;;5019984;28;20045;-63
2022/01/24 10:49:15;;;;;;;19.02;3.58;;;;;;;;;;5027840;28;20089;-63
2022/01/24 10:51:46;;;;;;;20.38;4.10;;;;;;;;;;5023563;28;20049;-63
2022/01/24 10:54:13;;;;;;;19.23;3.38;;;;;;;;;;5024323;28;20121;-63
2022/01/24 10:56:40;;;;;;;14.27;3.45;;;;;;;;;;5020425;28;20081;-63
2022/01/24 10:59:06;;;;;;;17.58;3.47;;;;;;;;;;5022955;28;20085;-63
2022/01/24 11:01:33;;;;;;;19.50;3.97;;;;;;;;;;5023707;28;20093;-63
2022/01/24 11:04:04;;;;;;;16.58;2.67;;;;;;;;;;5024759;28;20057;-63
2022/01/24 11:06:36;;;;;;;25.80;4.05;;;;;;;;;;5023027;28;20057;-63
2022/01/24 11:09:09;;;;;;;18.65;3.45;;;;;;;;;;5020807;28;20081;-63
2022/01/24 11:11:36;;;;;;;18.75;3.25;;;;;;;;;;5024594;28;20590;-63
2022/01/24 11:14:02;;;;;;;16.98;3.20;;;;;;;;;;5023429;28;20046;-63
2022/01/24 11:16:29;;;;;;;19.80;3.65;;;;;;;;;;5022977;28;20473;-63
2022/01/24 11:18:55;;;;;;;15.00;3.00;;;;;;;;;;5017325;28;20559;-63
2022/01/24 11:21:23;;;;;;;21.30;3.20;;;;;;;;;;5024068;28;20565;-63
2022/01/24 11:23:49;;;;;;;;;;;;;;;;;;5025535;28;20053;-63
2022/01/24 11:26:23;;;;;;;14.38;3.15;;;;;;;;;;5027456;28;19972;-63
2022/01/24 11:28:50;;;;;;;16.30;3.08;;;;;;;;;;5024646;28;20045;-63
2022/01/24 11:31:19;;;;;;;14.00;2.85;;;;;;;;;;5020475;28;20140;-63
2022/01/24 11:33:52;;;;;;;21.55;3.80;;;;;;;;;;5024680;28;20045;-63
2022/01/24 11:36:34;;;;;;;12.32;3.42;;;;;;;;;;5021349;28;20050;-63
2022/01/24 11:39:07;;;;;;;15.18;3.00;;;;;;;;;;5025138;28;20081;-63
2022/01/24 11:41:38;;;;;;;12.70;3.15;;;;;;;;;;5022129;28;20140;-63
2022/01/24 11:44:11;;;;;;;24.73;3.88;;;;;;;;;;5019695;28;20049;-63
2022/01/24 11:46:47;;;;;;;13.52;3.00;;;;;;;;;;5020663;28;20053;-63
2022/01/24 11:49:23;;;;;;;20.40;3.88;;;;;;;;;;5024788;28;20057;-63
2022/01/24 11:51:51;;;;;;;14.05;2.92;;;;;;;;;;5020353;28;20053;-63
2022/01/24 11:54:45;;;;;;;21.15;3.90;;;;;;;;;;5020431;28;20128;-63
2022/01/24 11:57:22;;;;;;;24.77;3.88;;;;;;;;;;5021034;28;20064;-63
2022/01/24 12:00:11;;;;;;;19.27;3.22;;;;;;;;;;5022741;28;20433;-63
2022/01/24 12:02:42;;;;;;;21.13;4.22;;;;;;;;;;5019436;28;20673;-63
2022/01/24 12:05:15;;;;;;;10.25;3.30;;;;;;;;;;5022204;28;20128;-63
2022/01/24 12:07:46;;;;;;;12.07;3.03;;;;;;;;;;5018886;28;20100;-63
2022/01/24 12:10:25;;;;;;;16.85;2.70;;;;;;;;;;5020024;28;20581;-63
2022/01/24 12:12:55;;;;;;;14.30;3.22;;;;;;;;;;5021440;28;20100;-63
2022/01/24 12:15:36;;;;;;;20.95;3.22;;;;;;;;;;5021545;28;20053;-63
2022/01/24 12:18:10;;;;;;;13.75;3.15;;;;;;;;;;5019248;28;20053;-63
2022/01/24 12:20:41;;;;;;;15.30;3.08;;;;;;;;;;5017198;28;20136;-63
2022/01/24 12:23:20;;;;;;;18.17;4.10;;;;;;;;;;5024212;28;20053;-63
2022/01/24 12:26:05;;;;;;;18.55;3.70;;;;;;;;;;5023926;28;20099;-63
2022/01/24 12:28:41;;;;;;;17.90;3.20;;;;;;;;;;5021599;28;20564;-63
2022/01/24 12:31:16;;;;;;;18.23;3.35;;;;;;;;;;5021746;28;20068;-63
2022/01/24 12:33:54;;;;;;;20.73;3.83;;;;;;;;;;5023757;28;20054;-63
2022/01/24 12:36:46;;;;;;;19.20;3.90;;;;;;;;;;5021337;28;20098;-63
2022/01/24 12:39:24;;;;;;;24.00;4.97;;;;;;;;;;5021233;28;20065;-63
2022/01/24 12:41:53;;;;;;;20.83;3.38;;;;;;;;;;5022181;28;20068;-63
2022/01/24 12:47:03;;;;;;;18.75;3.70;;;;;;;;;;5021485;28;20140;-63
2022/01/24 12:49:30;;;;;;;14.57;3.33;;;;;;;;;;5021569;28;20241;-63
2022/01/24 12:52:02;;;;;;;21.43;3.90;;;;;;;;;;5019036;28;20148;-63
2022/01/24 12:54:32;;;;;;;26.67;3.88;;;;;;;;;;5022490;28;20870;-63
2022/01/24 12:56:59;;;;;;;26.30;4.60;;;;;;;;;;5020834;28;20053;-63
2022/01/24 12:59:26;;;;;;;24.13;3.67;;;;;;;;;;5021689;28;20076;-63
2022/01/24 13:01:57;;;;;;;21.38;3.95;;;;;;;;;;5020401;28;20428;-63
2022/01/24 13:04:30;;;;;;;22.90;4.25;;;;;;;;;;5025753;28;20049;-63
2022/01/24 13:06:57;;;;;;;22.13;4.80;;;;;;;;;;5006718;28;20053;-63
2022/01/24 13:09:26;;;;;;;26.05;3.55;;;;;;;;;;5023954;28;20096;-63
2022/01/24 13:11:54;;;;;;;21.20;3.88;;;;;;;;;;5027961;28;20140;-63
2022/01/24 13:14:30;;;;;;;19.02;3.97;;;;;;;;;;5024279;28;20484;-63
2022/01/24 13:22:49;;;;;;;19.77;4.57;;;;;;;;;;5025513;28;20110;-63
2022/01/24 13:25:26;;;;;;;24.33;4.40;;;;;;;;;;5025530;28;20139;-63
2022/01/24 13:27:53;;;;;;;26.17;4.65;;;;;;;;;;5025467;28;20095;-63
2022/01/24 13:30:22;;;;;;;;;;;;;;;;;;5025023;28;20568;-63
2022/01/24 13:32:57;;;;;;;27.55;4.80;;;;;;;;;;5026361;28;19952;-63
2022/01/24 13:35:31;;;;;;;22.85;4.40;;;;;;;;;;5025728;28;20049;-63
2022/01/24 13:37:58;;;;;;;39.75;5.45;;;;;;;;;;5022494;28;20077;-63
2022/01/24 13:40:30;;;;;;;32.08;5.13;;;;;;;;;;5023804;28;20612;-63
2022/01/24 13:42:57;;;;;;;40.65;4.97;;;;;;;;;;5025987;28;20700;-63
2022/01/24 13:45:23;;;;;;;26.88;5.40;;;;;;;;;;5027098;28;20081;-63
2022/01/24 13:47:59;;;;;;;32.53;5.40;;;;;;;;;;5023619;28;20049;-63
2022/01/24 13:50:27;;;;;;;33.67;5.40;;;;;;;;;;5023760;28;20132;-63
2022/01/24 13:52:54;;;;;;;26.70;5.05;;;;;;;;;;5024045;28;20563;-63
2022/01/24 13:55:22;;;;;;;23.10;4.67;;;;;;;;;;5021400;28;20048;-63
2022/01/24 13:57:50;;;;;;;29.13;4.97;;;;;;;;;;5023556;28;20137;-63
2022/01/24 14:00:27;;;;;;;31.80;5.97;;;;;;;;;;5019794;28;20132;-64
2022/01/24 14:03:10;;;;;;;21.80;4.28;;;;;;;;;;5020626;28;20049;-63
2022/01/24 14:06:11;;;;;;;35.90;5.28;;;;;;;;;;5021762;28;20045;-63
2022/01/24 14:08:41;;;;;;;32.58;5.22;;;;;;;;;;5021548;28;20467;-63
2022/01/24 14:11:14;;;;;;;31.67;5.28;;;;;;;;;;5024244;28;20041;-63
2022/01/24 14:13:52;;;;;;;34.78;5.30;;;;;;;;;;5022615;28;20046;-63
2022/01/24 14:16:36;;;;;;;33.63;5.68;;;;;;;;;;5020164;28;20538;-63
2022/01/24 14:19:03;;;;;;;32.78;5.63;;;;;;;;;;5023149;28;20140;-63
2022/01/24 14:21:29;;;;;;;24.60;4.30;;;;;;;;;;5022029;28;20053;-63
2022/01/24 14:23:56;;;;;;;31.63;5.05;;;;;;;;;;5025901;28;20069;-63
2022/01/24 14:26:27;;;;;;;41.13;5.15;;;;;;;;;;5024850;28;20049;-63
2022/01/24 14:29:08;;;;;;;36.85;5.10;;;;;;;;;;5021348;28;20136;-63
2022/01/24 14:31:35;;;;;;;35.35;5.95;;;;;;;;;;5023886;28;20561;-63
2022/01/24 14:34:03;;;;;;;36.72;5.65;;;;;;;;;;5022554;28;20488;-63
2022/01/24 14:36:29;;;;;;;37.08;5.10;;;;;;;;;;5016612;28;20534;-63
2022/01/24 14:39:12;;;;;;;30.25;4.78;;;;;;;;;;5015661;28;20077;-63
2022/01/24 14:41:48;;;;;;;36.88;5.72;;;;;;;;;;5003243;28;20429;-63
2022/01/24 14:47:01;;;;;;;41.20;5.70;;;;;;;;;;5004586;28;20125;-63
2022/01/24 14:49:29;;;;;;;28.60;5.30;;;;;;;;;;5003267;28;20140;-63
2022/01/24 14:51:57;;;;;;;;;;;;;;;;;;4999940;28;20086;-63
2022/01/24 14:54:25;;;;;;;39.78;5.15;;;;;;;;;;5000437;28;19926;-63
2022/01/24 14:56:53;;;;;;;27.08;4.20;;;;;;;;;;5002887;28;20437;-63
2022/01/24 14:59:20;;;;;;;30.42;5.50;;;;;;;;;;5004176;28;20101;-63
2022/01/24 15:01:53;;;;;;;40.30;5.05;;;;;;;;;;4997789;28;20481;-63
2022/01/24 15:04:20;;;;;;;36.90;5.30;;;;;;;;;;4995752;28;20096;-63
2022/01/24 15:06:47;;;;;;;25.60;4.33;;;;;;;;;;4980201;28;20553;-64
2022/01/24 15:09:25;;;;;;;30.85;5.13;;;;;;;;;;4992830;28;20059;-63
2022/01/24 15:11:53;;;;;;;39.08;5.68;;;;;;;;;;4990581;28;20085;-63
2022/01/24 15:14:23;;;;;;;;;;;;;;;;;;4993158;28;20069;-63
2022/01/24 15:27:44;;;;;;;32.13;5.07;;;;;;;;;;4995670;28;20081;-63
2022/01/24 15:30:11;;;;;;;25.45;5.15;;;;;;;;;;4992558;28;20519;-63
2022/01/24 15:32:43;;;;;;;29.73;5.07;;;;;;;;;;4991145;28;20171;-63
2022/01/24 15:35:16;;;;;;;33.30;5.38;;;;;;;;;;4991229;28;20104;-63
2022/01/24 15:37:43;;;;;;;36.50;5.63;;;;;;;;;;4993537;28;20085;-63
2022/01/24 15:40:10;;;;;;;28.13;4.40;;;;;;;;;;5002768;28;20140;-63
2022/01/24 15:43:11;;;;;;;38.55;6.65;;;;;;;;;;5014365;28;20059;-63
2022/01/24 15:48:05;;;;;;;22.38;3.80;;;;;;;;;;5014812;28;20049;-63
2022/01/24 15:50:32;;;;;;;32.80;4.35;;;;;;;;;;5014552;28;20168;-63
2022/01/24 15:53:02;;;;;;;43.10;6.75;;;;;;;;;;5015055;28;20094;-63
2022/01/24 15:55:34;;;;;;;37.58;5.10;;;;;;;;;;5016943;28;20929;-63
2022/01/24 15:58:01;;;;;;;34.75;5.20;;;;;;;;;;5022906;28;20089;-63
2022/01/24 16:00:29;;;;;;;21.73;3.33;;;;;;;;;;5024504;28;20132;-63
2022/01/24 16:03:04;;;;;;;35.65;4.97;;;;;;;;;;5022563;28;20049;-63
2022/01/24 16:05:31;;;;;;;33.05;6.70;;;;;;;;;;5021644;28;20496;-63
2022/01/24 16:07:58;;;;;;;35.90;5.20;;;;;;;;;;5022668;28;20076;-63
2022/01/24 16:10:27;;;;;;;33.72;5.20;;;;;;;;;;5023320;28;20075;-63
2022/01/24 16:12:53;;;;;;;32.65;5.65;;;;;;;;;;5019993;28;20084;-63
2022/01/24 16:15:21;;;;;;;42.97;6.50;;;;;;;;;;5023722;28;20363;-63
2022/01/24 16:17:54;;;;;;;24.85;4.75;;;;;;;;;;5019585;28;20508;-63
2022/01/24 16:25:42;;;;;;;28.40;4.80;;;;;;;;;;5022646;28;20730;-63
2022/01/24 16:28:28;;;;;;;31.45;5.55;;;;;;;;;;5018608;28;20132;-63
2022/01/24 16:30:58;;;;;;;39.95;5.88;;;;;;;;;;5021965;28;20128;-63
2022/01/24 16:33:26;;;;;;;39.65;5.05;;;;;;;;;;5020393;28;20049;-63
2022/01/24 16:35:52;;;;;;;;;;;;;;;;;;5020104;28;20122;-63
2022/01/24 16:38:20;;;;;;;34.95;4.97;;;;;;;;;;5019252;28;19995;-63
2022/01/24 16:40:50;;;;;;;30.15;4.90;;;;;;;;;;5021927;28;20181;-63
2022/01/24 16:43:37;;;;;;;38.10;6.00;;;;;;;;;;5026737;28;20489;-63
2022/01/24 16:48:42;;;;;;;36.72;4.97;;;;;;;;;;5026234;28;20056;-63
2022/01/24 16:51:11;;;;;;;35.42;5.78;;;;;;;;;;5025265;28;20045;-63
2022/01/24 16:53:38;;;;;;;31.52;4.88;;;;;;;;;;5026002;28;20053;-63
2022/01/24 16:56:04;;;;;;;30.60;4.13;;;;;;;;;;5026426;28;20137;-63
2022/01/24 16:58:31;;;;;;;30.87;4.90;;;;;;;;;;5025837;28;20047;-63
2022/01/24 17:00:58;;;;;;;32.55;5.10;;;;;;;;;;5027210;28;20136;-63
2022/01/24 17:03:25;;;;;;;34.50;5.30;;;;;;;;;;5023342;28;20077;-63
2022/01/24 17:05:51;;;;;;;23.33;5.25;;;;;;;;;;5024519;28;20049;-63